sensor_id;sensor_type;location;lat;lon;timestamp;pressure;altitude;pressure_sealevel;temperature;humidity
58875;BME280;44652;49.040;12.126;2023-04-06T05:14:12;56916.91;;;-145.08;100.00
58875;BME280;44652;49.040;12.126;2023-04-06T05:16:38;56916.91;;;-145.08;100.00
58875;BME280;44652;49.040;12.126;2023-04-06T05:32:43;56916.91;;;-145.08;100.00
58875;BME280;44652;49.040;12.126;2023-04-06T05:35:11;56916.91;;;-145.08;100.00
58875;BME280;44652;49.040;12.126;2023-04-06T05:37:41;56916.91;;;-145.08;100.00
58875;BME280;44652;49.040;12.126;2023-04-06T05:40:09;56916.91;;;-145.08;100.00
58875;BME280;44652;49.040;12.126;2023-04-06T05:42:42;56916.91;;;-145.08;100.00
58875;BME280;44652;49.040;12.126;2023-04-06T05:45:10;56916.91;;;-145.08;100.00
58875;BME280;44652;49.040;12.126;2023-04-06T05:47:39;56916.91;;;-145.08;100.00
58875;BME280;44652;49.040;12.126;2023-04-06T05:50:17;56916.91;;;-145.08;100.00
58875;BME280;44652;49.040;12.126;2023-04-06T05:52:43;56916.91;;;-145.08;100.00
58875;BME280;44652;49.040;12.126;2023-04-06T05:55:15;56916.91;;;-145.08;100.00
58875;BME280;44652;49.040;12.126;2023-04-06T05:57:47;56916.91;;;-145.08;100.00
58875;BME280;44652;49.040;12.126;2023-04-06T06:00:16;56916.91;;;-145.08;100.00
58875;BME280;44652;49.040;12.126;2023-04-06T06:02:52;56916.91;;;-145.08;100.00
58875;BME280;44652;49.040;12.126;2023-04-06T06:05:23;56916.91;;;-145.08;100.00
58875;BME280;44652;49.040;12.126;2023-04-06T06:07:50;56916.91;;;-145.08;100.00
58875;BME280;44652;49.040;12.126;2023-04-06T06:10:17;56916.91;;;-145.08;100.00
58875;BME280;44652;49.040;12.126;2023-04-06T06:12:43;56916.91;;;-145.08;100.00
58875;BME280;44652;49.040;12.126;2023-04-06T06:15:11;56916.91;;;-145.08;100.00
58875;BME280;44652;49.040;12.126;2023-04-06T06:17:43;56916.91;;;-145.08;100.00
58875;BME280;44652;49.040;12.126;2023-04-06T06:20:10;56916.91;;;-145.08;100.00
58875;BME280;44652;49.040;12.126;2023-04-06T06:22:38;56916.91;;;-145.08;100.00
58875;BME280;44652;49.040;12.126;2023-04-06T06:25:10;56916.91;;;-145.08;100.00
58875;BME280;44652;49.040;12.126;2023-04-06T06:27:36;56916.91;;;-145.08;100.00
58875;BME280;44652;49.040;12.126;2023-04-06T06:30:05;56916.91;;;-145.08;100.00
58875;BME280;44652;49.040;12.126;2023-04-06T06:32:32;56916.91;;;-145.08;100.00
58875;BME280;44652;49.040;12.126;2023-04-06T06:34:59;56916.91;;;-145.08;100.00
58875;BME280;44652;49.040;12.126;2023-04-06T06:37:27;56916.91;;;-145.08;100.00
58875;BME280;44652;49.040;12.126;2023-04-06T06:39:56;56916.91;;;-145.08;100.00
58875;BME280;44652;49.040;12.126;2023-04-06T06:42:23;56916.91;;;-145.08;100.00
58875;BME280;44652;49.040;12.126;2023-04-06T06:45:06;56916.91;;;-145.08;100.00
58875;BME280;44652;49.040;12.126;2023-04-06T06:47:33;56916.91;;;-145.08;100.00
58875;BME280;44652;49.040;12.126;2023-04-06T06:50:00;56916.91;;;-145.08;100.00
58875;BME280;44652;49.040;12.126;2023-04-06T06:52:28;56916.91;;;-145.08;100.00
58875;BME280;44652;49.040;12.126;2023-04-06T06:54:55;56916.91;;;-145.08;100.00
58875;BME280;44652;49.040;12.126;2023-04-06T06:57:23;56916.91;;;-145.08;100.00
58875;BME280;44652;49.040;12.126;2023-04-06T06:59:50;56916.91;;;-145.08;100.00
58875;BME280;44652;49.040;12.126;2023-04-06T07:02:18;56916.91;;;-145.08;100.00
58875;BME280;44652;49.040;12.126;2023-04-06T07:04:48;56916.91;;;-145.08;100.00
58875;BME280;44652;49.040;12.126;2023-04-06T07:07:16;56916.91;;;-145.08;100.00
58875;BME280;44652;49.040;12.126;2023-04-06T07:09:42;56916.91;;;-145.08;100.00
58875;BME280;44652;49.040;12.126;2023-04-06T07:12:09;56916.91;;;-145.08;100.00
58875;BME280;44652;49.040;12.126;2023-04-06T07:14:36;56916.91;;;-145.08;100.00
58875;BME280;44652;49.040;12.126;2023-04-06T07:17:03;56916.91;;;-145.08;100.00
58875;BME280;44652;49.040;12.126;2023-04-06T07:19:30;56916.91;;;-145.08;100.00
58875;BME280;44652;49.040;12.126;2023-04-06T07:21:57;56916.91;;;-145.08;100.00
58875;BME280;44652;49.040;12.126;2023-04-06T07:24:25;56916.91;;;-145.08;100.00
58875;BME280;44652;49.040;12.126;2023-04-06T07:26:52;56916.91;;;-145.08;100.00
58875;BME280;44652;49.040;12.126;2023-04-06T07:29:19;56916.91;;;-145.08;100.00
58875;BME280;44652;49.040;12.126;2023-04-06T07:31:46;56916.91;;;-145.08;100.00
58875;BME280;44652;49.040;12.126;2023-04-06T07:34:14;56916.91;;;-145.08;100.00
58875;BME280;44652;49.040;12.126;2023-04-06T07:36:41;56916.91;;;-145.08;100.00
58875;BME280;44652;49.040;12.126;2023-04-06T07:39:08;56916.91;;;-145.08;100.00
58875;BME280;44652;49.040;12.126;2023-04-06T07:41:35;56916.91;;;-145.08;100.00
58875;BME280;44652;49.040;12.126;2023-04-06T07:44:03;56916.91;;;-145.08;100.00
58875;BME280;44652;49.040;12.126;2023-04-06T07:46:30;56916.91;;;-145.08;100.00
58875;BME280;44652;49.040;12.126;2023-04-06T07:48:58;56916.91;;;-145.08;100.00
58875;BME280;44652;49.040;12.126;2023-04-06T07:51:28;56916.91;;;-145.08;100.00
58875;BME280;44652;49.040;12.126;2023-04-06T07:53:55;56916.91;;;-145.08;100.00
58875;BME280;44652;49.040;12.126;2023-04-06T07:56:22;56916.91;;;-145.08;100.00
58875;BME280;44652;49.040;12.126;2023-04-06T07:58:49;56916.91;;;-145.08;100.00
58875;BME280;44652;49.040;12.126;2023-04-06T08:01:19;56916.91;;;-145.08;100.00
58875;BME280;44652;49.040;12.126;2023-04-06T08:03:46;56916.91;;;-145.08;100.00
58875;BME280;44652;49.040;12.126;2023-04-06T08:06:13;56916.91;;;-145.08;100.00
58875;BME280;44652;49.040;12.126;2023-04-06T08:08:41;56916.91;;;-145.08;100.00
58875;BME280;44652;49.040;12.126;2023-04-06T08:11:08;56916.91;;;-145.08;100.00
58875;BME280;44652;49.040;12.126;2023-04-06T08:13:35;56916.91;;;-145.08;100.00
58875;BME280;44652;49.040;12.126;2023-04-06T08:16:02;56916.91;;;-145.08;100.00
58875;BME280;44652;49.040;12.126;2023-04-06T08:18:29;56916.91;;;-145.08;100.00
58875;BME280;44652;49.040;12.126;2023-04-06T08:20:56;56916.91;;;-145.08;100.00
58875;BME280;44652;49.040;12.126;2023-04-06T08:23:23;56916.91;;;-145.08;100.00
58875;BME280;44652;49.040;12.126;2023-04-06T08:25:50;56916.91;;;-145.08;100.00
58875;BME280;44652;49.040;12.126;2023-04-06T08:28:19;56916.91;;;-145.08;100.00
58875;BME280;44652;49.040;12.126;2023-04-06T08:30:46;56916.91;;;-145.08;100.00
58875;BME280;44652;49.040;12.126;2023-04-06T08:33:13;56916.91;;;-145.08;100.00
58875;BME280;44652;49.040;12.126;2023-04-06T08:35:40;56916.91;;;-145.08;100.00
58875;BME280;44652;49.040;12.126;2023-04-06T08:38:06;56916.91;;;-145.08;100.00
58875;BME280;44652;49.040;12.126;2023-04-06T08:40:37;56916.91;;;-145.08;100.00
58875;BME280;44652;49.040;12.126;2023-04-06T08:43:06;56916.91;;;-145.08;100.00
58875;BME280;44652;49.040;12.126;2023-04-06T08:45:35;56916.91;;;-145.08;100.00
58875;BME280;44652;49.040;12.126;2023-04-06T08:48:02;56916.91;;;-145.08;100.00
58875;BME280;44652;49.040;12.126;2023-04-06T08:50:29;56916.91;;;-145.08;100.00
58875;BME280;44652;49.040;12.126;2023-04-06T08:52:56;56916.91;;;-145.08;100.00
58875;BME280;44652;49.040;12.126;2023-04-06T08:55:23;56916.91;;;-145.08;100.00
58875;BME280;44652;49.040;12.126;2023-04-06T08:57:51;56916.91;;;-145.08;100.00
58875;BME280;44652;49.040;12.126;2023-04-06T09:00:21;56916.91;;;-145.08;100.00
58875;BME280;44652;49.040;12.126;2023-04-06T09:02:49;56916.91;;;-145.08;100.00
58875;BME280;44652;49.040;12.126;2023-04-06T09:05:17;56916.91;;;-145.08;100.00
58875;BME280;44652;49.040;12.126;2023-04-06T09:07:44;56916.91;;;-145.08;100.00
58875;BME280;44652;49.040;12.126;2023-04-06T09:10:11;56916.91;;;-145.08;100.00
58875;BME280;44652;49.040;12.126;2023-04-06T09:12:41;56916.91;;;-145.08;100.00
58875;BME280;44652;49.040;12.126;2023-04-06T09:15:18;56916.91;;;-145.08;100.00
58875;BME280;44652;49.040;12.126;2023-04-06T09:17:49;56916.91;;;-145.08;100.00
58875;BME280;44652;49.040;12.126;2023-04-06T09:20:22;56916.91;;;-145.08;100.00
58875;BME280;44652;49.040;12.126;2023-04-06T09:22:49;56916.91;;;-145.08;100.00
58875;BME280;44652;49.040;12.126;2023-04-06T09:25:23;56916.91;;;-145.08;100.00
58875;BME280;44652;49.040;12.126;2023-04-06T09:28:04;56916.91;;;-145.08;100.00
58875;BME280;44652;49.040;12.126;2023-04-06T09:30:33;56916.91;;;-145.08;100.00
58875;BME280;44652;49.040;12.126;2023-04-06T09:33:02;56916.91;;;-145.08;100.00
58875;BME280;44652;49.040;12.126;2023-04-06T09:35:29;56916.91;;;-145.08;100.00
58875;BME280;44652;49.040;12.126;2023-04-06T09:37:57;56916.91;;;-145.08;100.00
58875;BME280;44652;49.040;12.126;2023-04-06T09:40:24;56916.91;;;-145.08;100.00
58875;BME280;44652;49.040;12.126;2023-04-06T09:42:51;56916.91;;;-145.08;100.00
58875;BME280;44652;49.040;12.126;2023-04-06T09:45:20;56916.91;;;-145.08;100.00
58875;BME280;44652;49.040;12.126;2023-04-06T09:47:47;56916.91;;;-145.08;100.00
58875;BME280;44652;49.040;12.126;2023-04-06T09:50:19;56916.91;;;-145.08;100.00
58875;BME280;44652;49.040;12.126;2023-04-06T09:52:51;56916.91;;;-145.08;100.00
58875;BME280;44652;49.040;12.126;2023-04-06T09:55:26;56916.91;;;-145.08;100.00
58875;BME280;44652;49.040;12.126;2023-04-06T09:58:07;56916.91;;;-145.08;100.00
58875;BME280;44652;49.040;12.126;2023-04-06T10:00:53;56916.91;;;-145.08;100.00
58875;BME280;44652;49.040;12.126;2023-04-06T10:03:29;56916.91;;;-145.08;100.00
58875;BME280;44652;49.040;12.126;2023-04-06T10:06:05;56916.91;;;-145.08;100.00
58875;BME280;44652;49.040;12.126;2023-04-06T10:08:33;56916.91;;;-145.08;100.00
58875;BME280;44652;49.040;12.126;2023-04-06T10:11:03;56916.91;;;-145.08;100.00
58875;BME280;44652;49.040;12.126;2023-04-06T10:13:29;56916.91;;;-145.08;100.00
58875;BME280;44652;49.040;12.126;2023-04-06T10:15:57;56916.91;;;-145.08;100.00
58875;BME280;44652;49.040;12.126;2023-04-06T10:18:28;56916.91;;;-145.08;100.00
58875;BME280;44652;49.040;12.126;2023-04-06T10:21:01;56916.91;;;-145.08;100.00
58875;BME280;44652;49.040;12.126;2023-04-06T10:23:41;56916.91;;;-145.08;100.00
58875;BME280;44652;49.040;12.126;2023-04-06T10:26:16;56916.91;;;-145.08;100.00
58875;BME280;44652;49.040;12.126;2023-04-06T10:28:45;56916.91;;;-145.08;100.00
58875;BME280;44652;49.040;12.126;2023-04-06T10:31:15;56916.91;;;-145.08;100.00
58875;BME280;44652;49.040;12.126;2023-04-06T10:34:00;56916.91;;;-145.08;100.00
58875;BME280;44652;49.040;12.126;2023-04-06T10:36:28;56916.91;;;-145.08;100.00
58875;BME280;44652;49.040;12.126;2023-04-06T10:39:05;56916.91;;;-145.08;100.00
58875;BME280;44652;49.040;12.126;2023-04-06T10:41:33;56916.91;;;-145.08;100.00
58875;BME280;44652;49.040;12.126;2023-04-06T10:44:00;56916.91;;;-145.08;100.00
58875;BME280;44652;49.040;12.126;2023-04-06T10:46:32;56916.91;;;-145.08;100.00
58875;BME280;44652;49.040;12.126;2023-04-06T10:49:11;56916.91;;;-145.08;100.00
58875;BME280;44652;49.040;12.126;2023-04-06T10:51:39;56916.91;;;-145.08;100.00
58875;BME280;44652;49.040;12.126;2023-04-06T10:54:06;56916.91;;;-145.08;100.00
58875;BME280;44652;49.040;12.126;2023-04-06T10:56:36;56916.91;;;-145.08;100.00
58875;BME280;44652;49.040;12.126;2023-04-06T10:59:03;56916.91;;;-145.08;100.00
58875;BME280;44652;49.040;12.126;2023-04-06T11:01:30;56916.91;;;-145.08;100.00
58875;BME280;44652;49.040;12.126;2023-04-06T11:03:57;56916.91;;;-145.08;100.00
58875;BME280;44652;49.040;12.126;2023-04-06T11:06:29;56916.91;;;-145.08;100.00
58875;BME280;44652;49.040;12.126;2023-04-06T11:08:57;56916.91;;;-145.08;100.00
58875;BME280;44652;49.040;12.126;2023-04-06T11:11:25;56916.91;;;-145.08;100.00
58875;BME280;44652;49.040;12.126;2023-04-06T11:13:57;56916.91;;;-145.08;100.00
58875;BME280;44652;49.040;12.126;2023-04-06T11:16:31;56916.91;;;-145.08;100.00
58875;BME280;44652;49.040;12.126;2023-04-06T11:19:04;56916.91;;;-145.08;100.00
58875;BME280;44652;49.040;12.126;2023-04-06T11:21:38;56916.91;;;-145.08;100.00
58875;BME280;44652;49.040;12.126;2023-04-06T11:24:24;56916.91;;;-145.08;100.00
58875;BME280;44652;49.040;12.126;2023-04-06T11:26:57;56916.91;;;-145.08;100.00
58875;BME280;44652;49.040;12.126;2023-04-06T11:29:29;56916.91;;;-145.08;100.00
58875;BME280;44652;49.040;12.126;2023-04-06T11:32:02;56916.91;;;-145.08;100.00
58875;BME280;44652;49.040;12.126;2023-04-06T11:34:32;56916.91;;;-145.08;100.00
58875;BME280;44652;49.040;12.126;2023-04-06T11:37:01;56916.91;;;-145.08;100.00
58875;BME280;44652;49.040;12.126;2023-04-06T11:39:40;56916.91;;;-145.08;100.00
58875;BME280;44652;49.040;12.126;2023-04-06T11:42:07;56916.91;;;-145.08;100.00
58875;BME280;44652;49.040;12.126;2023-04-06T11:47:09;56916.91;;;-145.08;100.00
58875;BME280;44652;49.040;12.126;2023-04-06T11:49:37;56916.91;;;-145.08;100.00
58875;BME280;44652;49.040;12.126;2023-04-06T11:52:21;56916.91;;;-145.08;100.00
58875;BME280;44652;49.040;12.126;2023-04-06T11:54:49;56916.91;;;-145.08;100.00
58875;BME280;44652;49.040;12.126;2023-04-06T11:57:17;56916.91;;;-145.08;100.00
58875;BME280;44652;49.040;12.126;2023-04-06T11:59:44;56916.91;;;-145.08;100.00
58875;BME280;44652;49.040;12.126;2023-04-06T12:02:11;56916.91;;;-145.08;100.00
58875;BME280;44652;49.040;12.126;2023-04-06T12:04:38;56916.91;;;-145.08;100.00
58875;BME280;44652;49.040;12.126;2023-04-06T12:07:05;56916.91;;;-145.08;100.00
58875;BME280;44652;49.040;12.126;2023-04-06T12:09:32;56916.91;;;-145.08;100.00
58875;BME280;44652;49.040;12.126;2023-04-06T12:12:00;56916.91;;;-145.08;100.00
58875;BME280;44652;49.040;12.126;2023-04-06T12:14:27;56916.91;;;-145.08;100.00
58875;BME280;44652;49.040;12.126;2023-04-06T12:16:54;56916.91;;;-145.08;100.00
58875;BME280;44652;49.040;12.126;2023-04-06T12:19:21;56916.91;;;-145.08;100.00
58875;BME280;44652;49.040;12.126;2023-04-06T12:21:53;56916.91;;;-145.08;100.00
58875;BME280;44652;49.040;12.126;2023-04-06T12:24:20;56916.91;;;-145.08;100.00
58875;BME280;44652;49.040;12.126;2023-04-06T12:26:47;56916.91;;;-145.08;100.00
58875;BME280;44652;49.040;12.126;2023-04-06T12:29:19;56916.91;;;-145.08;100.00
58875;BME280;44652;49.040;12.126;2023-04-06T12:31:46;56916.91;;;-145.08;100.00
58875;BME280;44652;49.040;12.126;2023-04-06T12:34:13;56916.91;;;-145.08;100.00
58875;BME280;44652;49.040;12.126;2023-04-06T12:36:39;56916.91;;;-145.08;100.00
58875;BME280;44652;49.040;12.126;2023-04-06T15:21:57;97602.34;;;17.53;22.30
58875;BME280;44652;49.040;12.126;2023-04-06T15:24:26;97594.22;;;18.14;21.71
58875;BME280;44652;49.040;12.126;2023-04-06T15:26:53;97593.38;;;17.98;21.37
58875;BME280;44652;49.040;12.126;2023-04-06T15:29:19;97583.56;;;18.07;21.73
58875;BME280;44652;49.040;12.126;2023-04-06T15:31:46;97589.72;;;18.26;21.56
58875;BME280;44652;49.040;12.126;2023-04-06T15:34:13;97604.97;;;17.90;20.94
58875;BME280;44652;49.040;12.126;2023-04-06T15:36:40;97594.91;;;18.58;20.77
58875;BME280;44652;49.040;12.126;2023-04-06T15:39:09;97585.44;;;19.37;20.13
58875;BME280;44652;49.040;12.126;2023-04-06T15:41:35;97581.91;;;16.56;23.04
58875;BME280;44652;49.040;12.126;2023-04-06T15:44:02;97581.63;;;18.47;21.53
58875;BME280;44652;49.040;12.126;2023-04-06T15:46:30;97600.72;;;19.21;20.51
58875;BME280;44652;49.040;12.126;2023-04-06T15:48:56;97591.06;;;20.00;19.64
58875;BME280;44652;49.040;12.126;2023-04-06T15:51:23;97580.50;;;19.86;19.49
58875;BME280;44652;49.040;12.126;2023-04-06T15:53:50;97590.31;;;18.81;20.45
58875;BME280;44652;49.040;12.126;2023-04-06T15:56:16;97591.13;;;18.94;20.38
58875;BME280;44652;49.040;12.126;2023-04-06T15:58:43;97580.31;;;20.03;19.54
58875;BME280;44652;49.040;12.126;2023-04-06T16:01:15;97594.53;;;19.13;18.89
58875;BME280;44652;49.040;12.126;2023-04-06T16:03:42;97589.69;;;18.29;19.41
58875;BME280;44652;49.040;12.126;2023-04-06T16:06:09;97579.16;;;19.41;18.67
58875;BME280;44652;49.040;12.126;2023-04-06T16:08:38;97593.00;;;19.84;18.83
58875;BME280;44652;49.040;12.126;2023-04-06T16:11:05;97588.81;;;19.56;18.34
58875;BME280;44652;49.040;12.126;2023-04-06T16:13:32;97576.81;;;19.06;19.24
58875;BME280;44652;49.040;12.126;2023-04-06T16:15:59;97578.56;;;19.08;18.72
58875;BME280;44652;49.040;12.126;2023-04-06T16:18:26;97576.56;;;19.33;20.21
58875;BME280;44652;49.040;12.126;2023-04-06T16:20:53;97584.28;;;19.65;19.10
58875;BME280;44652;49.040;12.126;2023-04-06T16:23:19;97577.31;;;18.20;19.19
58875;BME280;44652;49.040;12.126;2023-04-06T16:25:46;97587.88;;;18.41;19.49
58875;BME280;44652;49.040;12.126;2023-04-06T16:28:13;97574.66;;;18.14;19.80
58875;BME280;44652;49.040;12.126;2023-04-06T16:30:40;97584.50;;;18.01;20.36
58875;BME280;44652;49.040;12.126;2023-04-06T16:33:11;97584.50;;;17.95;21.28
58875;BME280;44652;49.040;12.126;2023-04-06T16:35:47;97581.06;;;16.86;21.50
58875;BME280;44652;49.040;12.126;2023-04-06T16:38:15;97589.91;;;16.68;21.60
58875;BME280;44652;49.040;12.126;2023-04-06T16:40:42;97581.72;;;16.00;22.16
58875;BME280;44652;49.040;12.126;2023-04-06T16:43:08;97569.66;;;15.13;24.03
58875;BME280;44652;49.040;12.126;2023-04-06T16:45:36;97588.09;;;14.93;25.05
58875;BME280;44652;49.040;12.126;2023-04-06T16:48:03;97584.56;;;14.11;25.35
58875;BME280;44652;49.040;12.126;2023-04-06T16:50:30;97596.47;;;13.77;25.20
58875;BME280;44652;49.040;12.126;2023-04-06T16:52:57;97585.31;;;12.81;27.03
58875;BME280;44652;49.040;12.126;2023-04-06T16:55:24;97575.28;;;13.15;25.25
58875;BME280;44652;49.040;12.126;2023-04-06T16:57:54;97581.88;;;12.38;27.95
58875;BME280;44652;49.040;12.126;2023-04-06T17:00:21;97604.88;;;11.97;29.83
58875;BME280;44652;49.040;12.126;2023-04-06T17:02:47;97592.81;;;12.11;29.44
58875;BME280;44652;49.040;12.126;2023-04-06T17:05:14;97592.75;;;12.07;30.29
58875;BME280;44652;49.040;12.126;2023-04-06T17:07:43;97586.88;;;11.79;29.36
58875;BME280;44652;49.040;12.126;2023-04-06T17:10:10;97589.56;;;11.82;30.75
58875;BME280;44652;49.040;12.126;2023-04-06T17:12:36;97600.97;;;11.80;30.31
58875;BME280;44652;49.040;12.126;2023-04-06T17:15:03;97585.97;;;11.38;31.29
58875;BME280;44652;49.040;12.126;2023-04-06T17:17:30;97605.16;;;11.31;30.91
58875;BME280;44652;49.040;12.126;2023-04-06T17:19:56;97600.69;;;11.28;32.45
58875;BME280;44652;49.040;12.126;2023-04-06T17:22:23;97597.38;;;10.99;32.29
58875;BME280;44652;49.040;12.126;2023-04-06T17:24:50;97598.91;;;10.91;34.06
58875;BME280;44652;49.040;12.126;2023-04-06T17:27:17;97604.00;;;10.83;33.45
58875;BME280;44652;49.040;12.126;2023-04-06T17:29:44;97589.41;;;10.61;33.72
58875;BME280;44652;49.040;12.126;2023-04-06T17:32:10;97605.31;;;10.31;34.44
58875;BME280;44652;49.040;12.126;2023-04-06T17:34:37;97610.25;;;10.20;34.81
58875;BME280;44652;49.040;12.126;2023-04-06T17:37:04;97615.88;;;10.03;35.07
58875;BME280;44652;49.040;12.126;2023-04-06T17:39:31;97598.50;;;10.08;36.07
58875;BME280;44652;49.040;12.126;2023-04-06T17:41:57;97612.66;;;10.13;36.39
58875;BME280;44652;49.040;12.126;2023-04-06T17:44:25;97601.63;;;9.96;36.54
58875;BME280;44652;49.040;12.126;2023-04-06T17:46:52;97597.00;;;9.87;37.12
58875;BME280;44652;49.040;12.126;2023-04-06T17:49:18;97601.88;;;9.73;38.08
58875;BME280;44652;49.040;12.126;2023-04-06T17:51:45;97617.53;;;9.69;37.88
58875;BME280;44652;49.040;12.126;2023-04-06T17:54:12;97602.69;;;9.42;38.31
58875;BME280;44652;49.040;12.126;2023-04-06T17:56:39;97610.56;;;9.41;39.01
58875;BME280;44652;49.040;12.126;2023-04-06T17:59:06;97625.13;;;9.30;38.49
58875;BME280;44652;49.040;12.126;2023-04-06T18:01:37;97633.63;;;9.21;39.32
58875;BME280;44652;49.040;12.126;2023-04-06T18:04:04;97635.75;;;9.06;40.13
58875;BME280;44652;49.040;12.126;2023-04-06T18:06:31;97631.66;;;8.88;40.36
58875;BME280;44652;49.040;12.126;2023-04-06T18:08:59;97637.66;;;8.84;39.47
58875;BME280;44652;49.040;12.126;2023-04-06T18:11:26;97642.78;;;8.80;39.97
58875;BME280;44652;49.040;12.126;2023-04-06T18:13:56;97640.91;;;8.75;40.60
58875;BME280;44652;49.040;12.126;2023-04-06T18:16:23;97637.91;;;8.65;40.23
58875;BME280;44652;49.040;12.126;2023-04-06T18:18:51;97619.75;;;8.47;40.65
58875;BME280;44652;49.040;12.126;2023-04-06T18:21:17;97615.47;;;8.25;40.86
58875;BME280;44652;49.040;12.126;2023-04-06T18:23:45;97643.13;;;8.39;41.34
58875;BME280;44652;49.040;12.126;2023-04-06T18:26:17;97622.53;;;8.26;41.28
58875;BME280;44652;49.040;12.126;2023-04-06T18:28:44;97644.56;;;8.31;42.29
58875;BME280;44652;49.040;12.126;2023-04-06T18:31:12;97646.31;;;8.31;41.41
58875;BME280;44652;49.040;12.126;2023-04-06T18:33:39;97638.81;;;8.17;41.73
58875;BME280;44652;49.040;12.126;2023-04-06T18:36:06;97646.81;;;8.20;41.72
58875;BME280;44652;49.040;12.126;2023-04-06T18:38:32;97618.88;;;7.98;42.12
58875;BME280;44652;49.040;12.126;2023-04-06T18:40:59;97649.88;;;8.09;42.22
58875;BME280;44652;49.040;12.126;2023-04-06T18:43:27;97646.22;;;8.03;43.14
58875;BME280;44652;49.040;12.126;2023-04-06T18:45:54;97653.88;;;7.99;42.46
58875;BME280;44652;49.040;12.126;2023-04-06T18:48:20;97641.81;;;7.80;43.53
58875;BME280;44652;49.040;12.126;2023-04-06T18:50:55;97650.25;;;7.71;42.79
58875;BME280;44652;49.040;12.126;2023-04-06T18:53:23;97630.78;;;7.42;42.79
58875;BME280;44652;49.040;12.126;2023-04-06T18:55:49;97654.88;;;7.54;43.31
58875;BME280;44652;49.040;12.126;2023-04-06T18:58:17;97626.78;;;7.29;44.11
58875;BME280;44652;49.040;12.126;2023-04-06T19:00:43;97655.47;;;7.47;45.22
58875;BME280;44652;49.040;12.126;2023-04-06T19:03:10;97648.34;;;7.22;46.23
58875;BME280;44652;49.040;12.126;2023-04-06T19:05:42;97650.66;;;7.15;46.47
58875;BME280;44652;49.040;12.126;2023-04-06T19:08:09;97674.53;;;7.00;48.19
58875;BME280;44652;49.040;12.126;2023-04-06T19:10:36;97654.28;;;6.54;48.96
58875;BME280;44652;49.040;12.126;2023-04-06T19:13:04;97672.69;;;6.36;50.17
58875;BME280;44652;49.040;12.126;2023-04-06T19:15:30;97656.56;;;6.25;50.95
58875;BME280;44652;49.040;12.126;2023-04-06T19:17:57;97675.91;;;6.29;51.22
58875;BME280;44652;49.040;12.126;2023-04-06T19:20:24;97665.19;;;6.03;52.63
58875;BME280;44652;49.040;12.126;2023-04-06T19:22:51;97670.34;;;6.21;53.34
58875;BME280;44652;49.040;12.126;2023-04-06T19:25:18;97660.28;;;6.11;53.50
58875;BME280;44652;49.040;12.126;2023-04-06T19:27:44;97658.25;;;5.86;54.03
58875;BME280;44652;49.040;12.126;2023-04-06T19:30:11;97660.25;;;5.72;54.83
58875;BME280;44652;49.040;12.126;2023-04-06T19:32:38;97657.84;;;5.77;55.36
58875;BME280;44652;49.040;12.126;2023-04-06T19:35:07;97664.81;;;5.39;55.60
58875;BME280;44652;49.040;12.126;2023-04-06T19:37:35;97665.44;;;5.16;56.79
58875;BME280;44652;49.040;12.126;2023-04-06T19:40:04;97667.38;;;5.02;57.87
58875;BME280;44652;49.040;12.126;2023-04-06T19:42:36;97689.63;;;5.11;57.49
58875;BME280;44652;49.040;12.126;2023-04-06T19:45:05;97678.72;;;4.84;57.86
58875;BME280;44652;49.040;12.126;2023-04-06T19:47:31;97668.66;;;4.74;58.49
58875;BME280;44652;49.040;12.126;2023-04-06T19:49:58;97682.88;;;4.63;59.21
58875;BME280;44652;49.040;12.126;2023-04-06T19:52:25;97666.69;;;4.52;59.12
58875;BME280;44652;49.040;12.126;2023-04-06T19:54:51;97676.00;;;4.47;59.14
58875;BME280;44652;49.040;12.126;2023-04-06T19:57:18;97672.34;;;4.27;60.38
58875;BME280;44652;49.040;12.126;2023-04-06T19:59:45;97680.97;;;4.43;60.51
58875;BME280;44652;49.040;12.126;2023-04-06T20:02:12;97690.50;;;4.58;60.05
58875;BME280;44652;49.040;12.126;2023-04-06T20:04:38;97678.69;;;4.49;60.42
58875;BME280;44652;49.040;12.126;2023-04-06T20:07:06;97691.19;;;4.38;60.34
58875;BME280;44652;49.040;12.126;2023-04-06T20:09:32;97674.03;;;3.93;62.08
58875;BME280;44652;49.040;12.126;2023-04-06T20:11:59;97695.47;;;3.87;61.88
58875;BME280;44652;49.040;12.126;2023-04-06T20:14:26;97681.63;;;3.72;62.61
58875;BME280;44652;49.040;12.126;2023-04-06T20:16:53;97691.00;;;3.84;62.66
58875;BME280;44652;49.040;12.126;2023-04-06T20:19:20;97688.75;;;3.59;63.66
58875;BME280;44652;49.040;12.126;2023-04-06T20:21:47;97689.81;;;3.47;64.90
58875;BME280;44652;49.040;12.126;2023-04-06T20:24:14;97680.41;;;3.65;64.27
58875;BME280;44652;49.040;12.126;2023-04-06T20:26:41;97677.13;;;3.69;63.86
58875;BME280;44652;49.040;12.126;2023-04-06T20:29:07;97670.22;;;3.53;64.12
58875;BME280;44652;49.040;12.126;2023-04-06T20:31:34;97685.19;;;3.41;64.32
58875;BME280;44652;49.040;12.126;2023-04-06T20:34:01;97678.81;;;3.05;65.45
58875;BME280;44652;49.040;12.126;2023-04-06T20:36:30;97673.09;;;2.96;66.61
58875;BME280;44652;49.040;12.126;2023-04-06T20:38:57;97700.09;;;2.98;67.28
58875;BME280;44652;49.040;12.126;2023-04-06T20:41:24;97679.56;;;2.87;67.61
58875;BME280;44652;49.040;12.126;2023-04-06T20:43:51;97689.59;;;3.11;66.49
58875;BME280;44652;49.040;12.126;2023-04-06T20:46:18;97681.97;;;3.30;66.12
58875;BME280;44652;49.040;12.126;2023-04-06T20:48:45;97685.44;;;3.14;66.15
58875;BME280;44652;49.040;12.126;2023-04-06T20:51:19;97685.72;;;3.35;65.65
58875;BME280;44652;49.040;12.126;2023-04-06T20:53:48;97678.25;;;3.41;64.23